createdAt,value
2022-09-17T00:01:39.117Z,10.70
2022-09-17T00:04:10.362Z,10.60
2022-09-17T00:06:40.489Z,10.60
2022-09-17T00:09:08.112Z,10.60
2022-09-17T00:11:41.366Z,10.60
2022-09-17T00:14:13.281Z,10.60
2022-09-17T00:16:49.441Z,10.60
2022-09-17T00:19:22.874Z,10.50
2022-09-17T00:21:50.624Z,10.50
2022-09-17T00:24:18.832Z,10.50
2022-09-17T00:26:49.418Z,10.50
2022-09-17T00:29:19.271Z,10.50
2022-09-17T00:31:49.117Z,10.50
2022-09-17T00:34:18.691Z,10.50
2022-09-17T00:36:46.031Z,10.50
2022-09-17T00:39:16.296Z,10.50
2022-09-17T00:41:46.926Z,10.50
2022-09-17T00:44:54.866Z,10.50
2022-09-17T00:47:39.679Z,10.40
2022-09-17T00:50:17.478Z,10.40
2022-09-17T00:52:49.765Z,10.30
2022-09-17T00:55:22.914Z,10.40
2022-09-17T00:57:58.877Z,10.40
2022-09-17T01:00:31.952Z,10.40
2022-09-17T01:03:01.753Z,10.40
2022-09-17T01:05:41.635Z,10.40
2022-09-17T01:08:23.169Z,10.40
2022-09-17T01:11:09.235Z,10.30
2022-09-17T01:13:54.867Z,10.40
2022-09-17T01:16:42.779Z,10.40
2022-09-17T01:19:43.323Z,10.30
2022-09-17T01:22:32.823Z,10.40
2022-09-17T01:25:28.483Z,10.30
2022-09-17T01:27:58.386Z,10.40
2022-09-17T01:30:45.883Z,10.40
2022-09-17T01:33:28.831Z,10.40
2022-09-17T01:36:11.195Z,10.40
2022-09-17T01:38:50.773Z,10.40
2022-09-17T01:41:39.860Z,10.30
2022-09-17T01:44:13.399Z,10.30
2022-09-17T01:46:52.013Z,10.30
2022-09-17T01:49:21.675Z,10.30
2022-09-17T01:51:55.279Z,10.30
2022-09-17T01:54:44.247Z,10.30
2022-09-17T01:57:19.720Z,10.30
2022-09-17T01:59:51.479Z,10.30
2022-09-17T02:02:35.564Z,10.30
2022-09-17T02:05:15.133Z,10.20
2022-09-17T02:07:52.378Z,10.20
2022-09-17T02:10:31.349Z,10.20
2022-09-17T02:13:16.837Z,10.20
2022-09-17T02:15:57.828Z,10.20
2022-09-17T02:18:46.138Z,10.20
2022-09-17T02:21:21.962Z,10.20
2022-09-17T02:24:17.924Z,10.10
2022-09-17T02:27:22.047Z,10.20
2022-09-17T02:29:49.903Z,10.10
2022-09-17T02:32:19.450Z,10.10
2022-09-17T02:34:49.100Z,10.10
2022-09-17T02:37:19.281Z,10.10
2022-09-17T02:39:48.869Z,10.10
2022-09-17T02:42:23.358Z,10.20
2022-09-17T02:45:15.706Z,10.10
2022-09-17T02:48:02.406Z,10.10
2022-09-17T02:50:44.302Z,10.10
2022-09-17T02:53:19.892Z,10.10
2022-09-17T02:56:08.885Z,10.00
2022-09-17T02:59:12.307Z,10.00
2022-09-17T03:02:03.338Z,10.00
2022-09-17T03:04:32.238Z,10.00
2022-09-17T03:07:00.510Z,9.90
2022-09-17T03:09:27.742Z,9.90
2022-09-17T03:11:55.428Z,9.90
2022-09-17T03:14:22.783Z,9.80
2022-09-17T03:16:54.295Z,9.80
2022-09-17T03:19:21.445Z,9.90
2022-09-17T03:21:49.028Z,9.80
2022-09-17T03:24:20.473Z,9.80
2022-09-17T03:26:50.413Z,9.80
2022-09-17T03:29:17.843Z,9.80
2022-09-17T03:31:47.414Z,9.80
2022-09-17T03:34:14.574Z,9.80
2022-09-17T03:36:41.961Z,9.90
2022-09-17T03:39:09.047Z,9.80
2022-09-17T03:41:38.447Z,9.80
2022-09-17T03:44:06.581Z,9.80
2022-09-17T03:46:33.784Z,9.80
2022-09-17T03:49:05.521Z,9.80
2022-09-17T03:51:32.940Z,9.80
2022-09-17T03:54:00.388Z,9.70
2022-09-17T03:56:27.559Z,9.80
2022-09-17T03:58:59.456Z,9.80
2022-09-17T04:01:30.337Z,9.80
2022-09-17T04:03:57.618Z,9.80
2022-09-17T04:06:25.270Z,9.90
2022-09-17T04:08:52.392Z,9.90
2022-09-17T04:11:24.543Z,9.90
2022-09-17T04:13:54.055Z,10.00
2022-09-17T04:16:21.651Z,10.00
2022-09-17T04:18:48.875Z,9.90
2022-09-17T04:21:16.311Z,9.90
2022-09-17T04:23:43.595Z,10.00
2022-09-17T04:26:12.927Z,10.00
2022-09-17T04:28:40.330Z,10.00
2022-09-17T04:31:07.906Z,10.00
2022-09-17T04:33:35.122Z,10.00
2022-09-17T04:36:02.683Z,10.10
2022-09-17T04:38:33.601Z,10.10
2022-09-17T04:41:03.145Z,10.10
2022-09-17T04:43:32.757Z,10.20
2022-09-17T04:45:59.910Z,10.30
2022-09-17T04:48:27.026Z,10.30
2022-09-17T04:50:54.435Z,10.40
2022-09-17T04:53:21.532Z,10.40
2022-09-17T04:55:48.678Z,10.40
2022-09-17T04:58:16.102Z,10.50
2022-09-17T05:00:45.555Z,10.50
2022-09-17T05:03:12.790Z,10.60
2022-09-17T05:05:42.553Z,10.60
2022-09-17T05:08:09.918Z,10.60
2022-09-17T05:10:41.429Z,10.60
2022-09-17T05:13:11.341Z,10.60
2022-09-17T05:15:43.451Z,10.70
2022-09-17T05:18:13.292Z,10.70
2022-09-17T05:20:43.104Z,10.70
2022-09-17T05:23:10.489Z,10.70
2022-09-17T05:25:40.288Z,10.70
2022-09-17T05:28:07.632Z,10.80
2022-09-17T05:30:35.033Z,10.80
2022-09-17T05:33:06.988Z,10.80
2022-09-17T05:35:38.757Z,10.90
2022-09-17T05:38:07.678Z,10.90
2022-09-17T05:40:35.208Z,11.00
2022-09-17T05:43:07.672Z,11.00
2022-09-17T05:45:36.171Z,11.00
2022-09-17T05:48:09.946Z,11.10
2022-09-17T05:50:37.290Z,11.10
2022-09-17T05:53:11.006Z,11.10
2022-09-17T05:55:40.969Z,11.20
2022-09-17T05:58:19.907Z,11.30
2022-09-17T06:00:49.742Z,11.20
2022-09-17T06:03:22.564Z,11.20
2022-09-17T06:05:55.432Z,11.30
2022-09-17T06:08:23.021Z,11.20
2022-09-17T06:10:52.548Z,11.20
2022-09-17T06:13:22.185Z,11.30
2022-09-17T06:15:56.651Z,11.20
2022-09-17T06:18:24.178Z,11.20
2022-09-17T06:20:59.195Z,11.30
2022-09-17T06:23:34.958Z,11.30
2022-09-17T06:26:03.262Z,11.30
2022-09-17T06:28:34.258Z,11.30
2022-09-17T06:31:08.145Z,11.40
2022-09-17T06:33:38.262Z,11.40
2022-09-17T06:36:13.971Z,11.40
2022-09-17T06:38:47.614Z,11.40
2022-09-17T06:41:15.064Z,11.40
2022-09-17T06:43:42.616Z,11.40
2022-09-17T06:46:14.605Z,11.50
2022-09-17T06:48:44.039Z,11.50
2022-09-17T06:51:14.631Z,11.40
2022-09-17T06:53:44.376Z,11.40
2022-09-17T06:56:13.864Z,11.40
2022-09-17T06:58:44.318Z,11.40
2022-09-17T07:01:16.604Z,11.40
2022-09-17T07:03:45.999Z,11.40
2022-09-17T07:06:15.882Z,11.40
2022-09-17T07:08:43.032Z,11.40
2022-09-17T07:11:10.365Z,11.50
2022-09-17T07:13:37.932Z,11.50
2022-09-17T07:16:10.571Z,11.50
2022-09-17T07:18:43.295Z,11.50
2022-09-17T07:21:10.603Z,11.60
2022-09-17T07:23:37.922Z,11.60
2022-09-17T07:26:08.187Z,11.70
2022-09-17T07:28:39.626Z,11.70
2022-09-17T07:31:10.253Z,11.70
2022-09-17T07:33:40.928Z,11.70
2022-09-17T07:36:13.091Z,11.80
2022-09-17T07:38:42.575Z,11.70
2022-09-17T07:41:15.560Z,11.70
2022-09-17T07:43:45.313Z,11.70
2022-09-17T07:46:17.284Z,11.70
2022-09-17T07:48:44.796Z,11.80
2022-09-17T07:51:25.068Z,11.80
2022-09-17T07:53:53.682Z,11.80
2022-09-17T07:56:23.599Z,11.70
2022-09-17T07:58:51.558Z,11.60
2022-09-17T08:01:22.730Z,11.60
2022-09-17T08:03:54.816Z,11.60
2022-09-17T08:06:28.004Z,11.60
2022-09-17T08:08:59.890Z,11.60
2022-09-17T08:11:54.997Z,11.60
2022-09-17T08:14:28.429Z,11.70
2022-09-17T08:16:59.413Z,11.70
2022-09-17T08:19:31.157Z,11.80
2022-09-17T08:21:58.727Z,11.80
2022-09-17T08:24:26.081Z,11.90
2022-09-17T08:26:53.494Z,11.90
2022-09-17T08:29:20.943Z,12.00
2022-09-17T08:31:50.702Z,12.10
2022-09-17T08:34:20.773Z,12.10
2022-09-17T08:36:48.948Z,12.10
2022-09-17T08:39:18.484Z,12.20
2022-09-17T08:41:50.972Z,12.30
2022-09-17T08:44:46.283Z,12.40
2022-09-17T08:47:36.501Z,12.40
2022-09-17T08:50:14.314Z,12.50
2022-09-17T08:53:14.035Z,12.70
2022-09-17T08:55:54.102Z,12.80
2022-09-17T08:58:37.846Z,12.80
2022-09-17T09:01:24.288Z,12.90
2022-09-17T09:04:14.183Z,12.90
2022-09-17T09:06:49.531Z,12.80
2022-09-17T09:09:22.543Z,12.60
2022-09-17T09:12:00.639Z,12.50
2022-09-17T09:14:33.461Z,12.50
2022-09-17T09:17:05.809Z,12.60
2022-09-17T09:19:41.489Z,12.60
2022-09-17T09:22:42.131Z,12.60
2022-09-17T09:25:23.177Z,12.80
2022-09-17T09:27:58.864Z,12.90
2022-09-17T09:30:51.978Z,13.00
2022-09-17T09:33:31.988Z,13.10
2022-09-17T09:35:59.668Z,13.00
2022-09-17T09:38:33.890Z,13.00
2022-09-17T09:41:10.052Z,13.10
2022-09-17T09:44:04.809Z,12.90
2022-09-17T09:47:00.255Z,12.90
2022-09-17T09:49:56.048Z,12.90
2022-09-17T09:52:42.061Z,12.90
2022-09-17T09:55:54.583Z,12.80
2022-09-17T09:58:38.612Z,12.70
2022-09-17T10:01:20.427Z,12.70
2022-09-17T10:03:49.511Z,12.80
2022-09-17T10:06:18.017Z,12.90
2022-09-17T10:08:57.159Z,13.00
2022-09-17T10:11:27.132Z,13.20
2022-09-17T10:14:20.004Z,13.50
2022-09-17T10:16:50.535Z,13.60
2022-09-17T10:19:25.678Z,13.70
2022-09-17T10:21:56.451Z,14.00
2022-09-17T10:24:23.498Z,14.20
2022-09-17T10:26:51.995Z,14.20
2022-09-17T10:29:21.183Z,14.30
2022-09-17T10:31:55.879Z,14.20
2022-09-17T10:34:27.214Z,14.20
2022-09-17T10:36:58.541Z,14.30
2022-09-17T10:39:38.016Z,14.50
2022-09-17T10:42:06.356Z,14.60
2022-09-17T10:44:36.743Z,14.60
2022-09-17T10:47:06.951Z,14.60
2022-09-17T10:49:46.723Z,14.50
2022-09-17T10:52:23.090Z,14.40
2022-09-17T10:55:30.580Z,14.30
2022-09-17T10:58:09.703Z,14.40
2022-09-17T11:01:23.134Z,14.40
2022-09-17T11:04:17.583Z,14.40
2022-09-17T11:07:18.347Z,14.50
2022-09-17T11:09:58.916Z,14.70
2022-09-17T11:12:44.687Z,14.60
2022-09-17T11:15:39.575Z,14.60
2022-09-17T11:18:19.059Z,14.60
2022-09-17T11:21:13.928Z,14.50
2022-09-17T11:24:05.669Z,14.40
2022-09-17T11:26:56.815Z,14.40
2022-09-17T11:30:03.130Z,14.30
2022-09-17T11:32:56.624Z,14.30
2022-09-17T11:36:00.121Z,14.10
2022-09-17T11:38:36.239Z,14.10
2022-09-17T11:41:10.605Z,14.00
2022-09-17T11:43:46.414Z,14.10
2022-09-17T11:46:23.373Z,13.90
2022-09-17T11:48:56.346Z,13.70
2022-09-17T11:51:39.739Z,13.60
2022-09-17T11:54:23.268Z,13.60
2022-09-17T11:57:16.148Z,13.40
2022-09-17T11:59:58.912Z,13.50
2022-09-17T12:02:44.391Z,13.50
2022-09-17T12:05:35.933Z,13.40
2022-09-17T12:08:21.305Z,13.40
2022-09-17T12:11:13.179Z,13.30
2022-09-17T12:13:45.831Z,13.40
2022-09-17T12:16:19.255Z,13.30
2022-09-17T12:19:11.648Z,13.30
2022-09-17T12:21:44.679Z,13.40
2022-09-17T12:24:27.302Z,13.40
2022-09-17T12:27:21.895Z,13.50
2022-09-17T12:30:03.485Z,13.70
2022-09-17T12:33:13.426Z,13.70
2022-09-17T12:36:30.000Z,13.70
2022-09-17T12:39:11.917Z,13.80
2022-09-17T12:42:02.971Z,13.80
2022-09-17T12:45:03.623Z,14.00
2022-09-17T12:48:13.495Z,14.10
2022-09-17T12:51:00.404Z,14.20
2022-09-17T12:53:37.206Z,14.20
2022-09-17T12:56:07.499Z,14.20
2022-09-17T12:58:37.914Z,14.20
2022-09-17T13:01:21.094Z,14.20
2022-09-17T13:04:05.076Z,14.10
2022-09-17T13:06:53.417Z,14.20
2022-09-17T13:10:01.482Z,14.20
2022-09-17T13:12:46.725Z,14.30
2022-09-17T13:15:44.716Z,14.40
2022-09-17T13:18:34.189Z,14.50
2022-09-17T13:21:16.777Z,14.60
2022-09-17T13:23:46.784Z,14.60
2022-09-17T13:26:19.811Z,14.80
2022-09-17T13:28:51.770Z,14.80
2022-09-17T13:31:25.607Z,14.90
2022-09-17T13:33:52.699Z,14.90
2022-09-17T13:36:52.061Z,14.90
2022-09-17T13:39:52.268Z,14.90
2022-09-17T13:42:24.299Z,14.80
2022-09-17T13:45:16.239Z,14.80
2022-09-17T13:48:02.785Z,14.70
2022-09-17T13:50:35.151Z,14.80
2022-09-17T13:53:16.943Z,14.90
2022-09-17T13:56:01.163Z,15.00
2022-09-17T13:58:35.646Z,15.20
2022-09-17T14:01:08.058Z,15.20
2022-09-17T14:03:37.645Z,15.10
2022-09-17T14:06:14.793Z,15.10
2022-09-17T14:08:45.745Z,15.20
2022-09-17T14:11:26.457Z,15.20
2022-09-17T14:14:16.692Z,15.20
2022-09-17T14:16:45.725Z,15.20
2022-09-17T14:19:16.203Z,15.20
2022-09-17T14:21:57.435Z,15.20
2022-09-17T14:24:29.918Z,15.20
2022-09-17T14:27:09.111Z,15.10
2022-09-17T14:30:06.114Z,15.10
2022-09-17T14:32:42.495Z,15.00
2022-09-17T14:35:20.721Z,15.10
2022-09-17T14:38:16.322Z,15.00
2022-09-17T14:40:49.942Z,15.00
2022-09-17T14:43:32.676Z,14.90
2022-09-17T14:46:00.529Z,14.80
2022-09-17T14:48:30.802Z,14.80
2022-09-17T14:51:19.814Z,14.70
2022-09-17T14:53:49.247Z,14.70
2022-09-17T14:56:22.221Z,14.70
2022-09-17T14:58:57.563Z,14.60
2022-09-17T15:01:31.668Z,14.60
2022-09-17T15:04:30.996Z,14.60
2022-09-17T15:07:12.687Z,14.60
2022-09-17T15:09:40.450Z,14.60
2022-09-17T15:12:07.996Z,14.60
2022-09-17T15:14:42.386Z,14.60
2022-09-17T15:17:15.366Z,14.70
2022-09-17T15:19:51.504Z,14.70
2022-09-17T15:22:27.276Z,14.70
2022-09-17T15:25:04.481Z,14.60
2022-09-17T15:27:43.512Z,14.70
2022-09-17T15:30:20.313Z,14.70
2022-09-17T15:32:58.817Z,14.70
2022-09-17T15:35:30.006Z,14.70
2022-09-17T15:38:24.076Z,14.70
2022-09-17T15:40:58.174Z,14.60
2022-09-17T15:43:25.478Z,14.60
2022-09-17T15:45:53.053Z,14.60
2022-09-17T15:48:35.120Z,14.50
2022-09-17T15:51:03.890Z,14.60
2022-09-17T15:53:35.260Z,14.50
2022-09-17T15:56:15.244Z,14.50
2022-09-17T15:58:42.831Z,14.50
2022-09-17T16:01:16.069Z,14.60
2022-09-17T16:04:18.026Z,14.50
2022-09-17T16:07:20.575Z,14.60
2022-09-17T16:09:52.562Z,14.60
2022-09-17T16:12:25.682Z,14.60
2022-09-17T16:14:56.005Z,14.60
2022-09-17T16:17:29.356Z,14.60
2022-09-17T16:20:02.590Z,14.50
2022-09-17T16:22:33.256Z,14.50
2022-09-17T16:25:02.910Z,14.50
2022-09-17T16:27:39.050Z,14.40
2022-09-17T16:30:10.952Z,14.40
2022-09-17T16:32:38.422Z,14.40
2022-09-17T16:35:16.426Z,14.40
2022-09-17T16:37:49.159Z,14.40
2022-09-17T16:40:17.098Z,14.30
2022-09-17T16:42:47.307Z,14.20
2022-09-17T16:45:16.935Z,14.20
2022-09-17T16:47:46.866Z,14.20
2022-09-17T16:50:16.500Z,14.10
2022-09-17T16:52:49.246Z,14.10
2022-09-17T16:55:19.412Z,14.00
2022-09-17T16:57:46.837Z,14.00
2022-09-17T17:00:19.662Z,14.00
2022-09-17T17:02:57.307Z,14.00
2022-09-17T17:05:26.391Z,14.00
2022-09-17T17:07:56.891Z,14.00
2022-09-17T17:10:26.607Z,13.90
2022-09-17T17:12:54.208Z,13.90
2022-09-17T17:15:27.182Z,13.90
2022-09-17T17:17:54.312Z,13.90
2022-09-17T17:20:21.681Z,13.90
2022-09-17T17:22:50.675Z,13.80
2022-09-17T17:25:23.881Z,13.80
2022-09-17T17:27:53.671Z,13.80
2022-09-17T17:30:22.092Z,13.80
2022-09-17T17:32:52.857Z,13.70
2022-09-17T17:35:20.753Z,13.70
2022-09-17T17:37:52.383Z,13.70
2022-09-17T17:40:22.466Z,13.70
2022-09-17T17:42:53.708Z,13.70
2022-09-17T17:45:21.136Z,13.60
2022-09-17T17:47:50.810Z,13.60
2022-09-17T17:50:18.463Z,13.60
2022-09-17T17:52:48.153Z,13.60
2022-09-17T17:55:16.672Z,13.60
2022-09-17T17:57:44.192Z,13.60
2022-09-17T18:00:12.613Z,13.60
2022-09-17T18:02:40.903Z,13.60
2022-09-17T18:05:08.780Z,13.50
2022-09-17T18:07:35.881Z,13.50
2022-09-17T18:10:03.287Z,13.50
2022-09-17T18:12:33.055Z,13.50
2022-09-17T18:15:04.690Z,13.50
2022-09-17T18:17:37.204Z,13.50
2022-09-17T18:20:05.305Z,13.50
2022-09-17T18:22:32.636Z,13.50
2022-09-17T18:25:00.076Z,13.50
2022-09-17T18:27:29.726Z,13.50
2022-09-17T18:29:57.131Z,13.50
2022-09-17T18:32:24.440Z,13.40
2022-09-17T18:34:51.761Z,13.40
2022-09-17T18:37:21.180Z,13.40
2022-09-17T18:40:04.716Z,13.40
2022-09-17T18:42:34.163Z,13.40
2022-09-17T18:45:04.413Z,13.40
2022-09-17T18:47:31.612Z,13.40
2022-09-17T18:50:01.218Z,13.40
2022-09-17T18:52:31.362Z,13.40
2022-09-17T18:55:03.122Z,13.40
2022-09-17T18:57:31.398Z,13.40
2022-09-17T19:00:01.179Z,13.40
2022-09-17T19:02:28.714Z,13.30
2022-09-17T19:04:58.338Z,13.30
2022-09-17T19:07:25.529Z,13.30
2022-09-17T19:09:55.303Z,13.20
2022-09-17T19:12:24.803Z,13.10
2022-09-17T19:14:54.276Z,13.00
2022-09-17T19:17:21.376Z,13.00
2022-09-17T19:19:48.816Z,12.90
2022-09-17T19:22:18.596Z,12.80
2022-09-17T19:24:48.134Z,12.80
2022-09-17T19:27:17.702Z,12.70
2022-09-17T19:29:44.979Z,12.60
2022-09-17T19:32:12.119Z,12.60
2022-09-17T19:34:39.686Z,12.50
2022-09-17T19:37:06.934Z,12.50
2022-09-17T19:39:34.359Z,12.50
2022-09-17T19:42:01.804Z,12.40
2022-09-17T19:44:29.704Z,12.40
2022-09-17T19:46:59.136Z,12.40
2022-09-17T19:49:26.798Z,12.40
2022-09-17T19:51:54.010Z,12.30
2022-09-17T19:54:21.379Z,12.30
2022-09-17T19:56:48.685Z,12.30
2022-09-17T19:59:18.175Z,12.30
2022-09-17T20:01:49.605Z,12.30
2022-09-17T20:04:18.122Z,12.30
2022-09-17T20:06:45.494Z,12.30
2022-09-17T20:09:15.037Z,12.30
2022-09-17T20:11:42.639Z,12.30
2022-09-17T20:14:11.684Z,12.40
2022-09-17T20:16:40.182Z,12.40
2022-09-17T20:19:08.373Z,12.40
2022-09-17T20:21:40.205Z,12.50
2022-09-17T20:24:07.826Z,12.50
2022-09-17T20:26:37.339Z,12.50
2022-09-17T20:29:07.439Z,12.50
2022-09-17T20:31:37.158Z,12.50
2022-09-17T20:34:07.306Z,12.50
2022-09-17T20:36:37.314Z,12.50
2022-09-17T20:39:13.272Z,12.50
2022-09-17T20:41:46.140Z,12.50
2022-09-17T20:44:15.587Z,12.50
2022-09-17T20:46:42.754Z,12.40
2022-09-17T20:49:10.212Z,12.30
2022-09-17T20:51:37.681Z,12.40
2022-09-17T20:54:06.063Z,12.30
2022-09-17T20:56:34.963Z,12.40
2022-09-17T20:59:17.350Z,12.40
2022-09-17T21:01:50.079Z,12.40
2022-09-17T21:04:21.098Z,12.30
2022-09-17T21:06:52.481Z,12.30
2022-09-17T21:09:24.355Z,12.30
2022-09-17T21:11:51.774Z,12.30
2022-09-17T21:14:21.297Z,12.30
2022-09-17T21:16:49.024Z,12.30
2022-09-17T21:19:17.197Z,12.30
2022-09-17T21:21:47.983Z,12.30
2022-09-17T21:24:15.400Z,12.30
2022-09-17T21:26:47.723Z,12.30
2022-09-17T21:29:14.792Z,12.40
2022-09-17T21:31:47.595Z,12.40
2022-09-17T21:34:15.167Z,12.30
2022-09-17T21:36:44.589Z,12.30
2022-09-17T21:39:16.314Z,12.30
2022-09-17T21:41:48.044Z,12.20
2022-09-17T21:44:15.245Z,12.20
2022-09-17T21:46:48.593Z,12.20
2022-09-17T21:49:18.442Z,12.20
2022-09-17T21:51:48.714Z,12.10
2022-09-17T21:54:18.142Z,12.10
2022-09-17T21:56:48.072Z,12.20
2022-09-17T21:59:17.073Z,12.10
2022-09-17T22:01:48.063Z,12.10
2022-09-17T22:04:19.612Z,12.10
2022-09-17T22:06:52.263Z,12.10
2022-09-17T22:09:24.293Z,12.10
2022-09-17T22:11:55.105Z,12.10
2022-09-17T22:14:25.037Z,12.10
2022-09-17T22:16:54.975Z,12.10
2022-09-17T22:19:23.602Z,12.10
2022-09-17T22:21:54.914Z,12.00
2022-09-17T22:24:25.495Z,12.00
2022-09-17T22:26:58.231Z,12.00
2022-09-17T22:29:28.448Z,12.00
2022-09-17T22:32:00.333Z,12.00
2022-09-17T22:34:32.255Z,12.10
2022-09-17T22:37:01.637Z,12.10
2022-09-17T22:39:31.090Z,12.10
2022-09-17T22:41:58.787Z,12.10
2022-09-17T22:44:28.499Z,12.20
2022-09-17T22:46:57.991Z,12.20
2022-09-17T22:49:27.913Z,12.20
2022-09-17T22:51:57.198Z,12.20
2022-09-17T22:54:24.453Z,12.10
2022-09-17T22:56:51.701Z,12.10
2022-09-17T22:59:21.683Z,12.00
2022-09-17T23:01:48.918Z,12.00
2022-09-17T23:04:18.696Z,12.00
2022-09-17T23:06:45.864Z,12.00
2022-09-17T23:09:14.148Z,11.90
2022-09-17T23:11:41.606Z,11.90
2022-09-17T23:14:13.146Z,11.90
2022-09-17T23:16:45.820Z,11.90
2022-09-17T23:19:18.779Z,11.80
2022-09-17T23:21:46.256Z,11.80
2022-09-17T23:24:18.989Z,11.70
2022-09-17T23:26:46.946Z,11.70
2022-09-17T23:29:14.308Z,11.70
2022-09-17T23:31:41.664Z,11.70
2022-09-17T23:34:10.001Z,11.70
2022-09-17T23:36:44.031Z,11.70
2022-09-17T23:39:14.032Z,11.70
2022-09-17T23:41:48.175Z,11.60
2022-09-17T23:44:16.404Z,11.60
2022-09-17T23:46:45.351Z,11.50
2022-09-17T23:49:14.285Z,11.50
2022-09-17T23:51:44.208Z,11.40
2022-09-17T23:54:11.353Z,11.40
2022-09-17T23:56:41.154Z,11.40
2022-09-17T23:59:12.281Z,11.40
